Time;durP1;ratioP1;P1;durP2;ratioP2;P2;SDS_P1;SDS_P2;PMS_P1;PMS_P2;Temp;Humidity;BMP_temperature;BMP_pressure;BME280_temperature;BME280_humidity;BME280_pressure;Samples;Min_cycle;Max_cycle;Signal;HPM_P1;HPM_P2
2022/01/16 00:00:26;;;;;;;25.63;10.70;;;;;;;;;;5041200;28;20053;-80
2022/01/16 00:05:26;;;;;;;20.77;9.27;;;;;;;;;;5041053;28;20387;-79
2022/01/16 00:07:52;;;;;;;21.75;9.10;;;;;;;;;;5040761;28;20096;-80
2022/01/16 00:10:18;;;;;;;28.90;9.10;;;;;;;;;;5040402;28;20052;-78
2022/01/16 00:12:48;;;;;;;23.35;9.20;;;;;;;;;;5040415;28;20060;-80
2022/01/16 00:15:14;;;;;;;27.75;9.52;;;;;;;;;;5041738;28;20518;-80
2022/01/16 00:17:51;;;;;;;20.90;8.40;;;;;;;;;;5052745;28;20088;-80
2022/01/16 00:20:17;;;;;;;23.27;8.30;;;;;;;;;;5058799;28;20013;-79
2022/01/16 00:22:44;;;;;;;20.27;9.07;;;;;;;;;;5042296;28;20033;-78
2022/01/16 00:25:09;;;;;;;25.65;8.38;;;;;;;;;;5059316;28;20016;-79
2022/01/16 00:27:35;;;;;;;19.60;9.10;;;;;;;;;;5050346;28;20100;-79
2022/01/16 00:30:00;;;;;;;26.33;8.68;;;;;;;;;;5039850;28;20420;-80
2022/01/16 00:32:25;;;;;;;18.98;8.32;;;;;;;;;;5039932;28;20025;-79
2022/01/16 00:34:50;;;;;;;25.10;8.25;;;;;;;;;;5039765;28;20055;-80
2022/01/16 00:37:16;;;;;;;21.27;8.13;;;;;;;;;;5039999;28;20064;-79
2022/01/16 00:39:42;;;;;;;17.70;8.13;;;;;;;;;;5040039;28;20104;-80
2022/01/16 00:42:07;;;;;;;18.58;8.25;;;;;;;;;;5040683;28;20025;-80
2022/01/16 00:44:32;;;;;;;27.00;8.63;;;;;;;;;;5040687;28;20028;-80
2022/01/16 00:46:57;;;;;;;24.10;7.88;;;;;;;;;;5040366;28;20022;-80
2022/01/16 00:49:23;;;;;;;18.88;7.70;;;;;;;;;;5040048;28;20051;-78
2022/01/16 00:51:48;;;;;;;24.52;7.93;;;;;;;;;;5039978;28;20088;-80
2022/01/16 00:54:13;;;;;;;20.70;7.80;;;;;;;;;;5022660;28;20040;-80
2022/01/16 00:56:38;;;;;;;22.77;7.90;;;;;;;;;;5039478;28;20025;-79
2022/01/16 00:59:04;;;;;;;19.98;7.20;;;;;;;;;;5039741;28;20024;-80
2022/01/16 01:01:29;;;;;;;16.95;7.25;;;;;;;;;;5038187;28;20519;-79
2022/01/16 01:03:54;;;;;;;22.27;7.18;;;;;;;;;;5039547;28;20083;-80
2022/01/16 01:06:19;;;;;;;17.58;7.05;;;;;;;;;;5040492;28;20104;-80
2022/01/16 01:08:45;;;;;;;13.52;6.43;;;;;;;;;;5039970;28;20551;-80
2022/01/16 01:11:15;;;;;;;14.70;6.55;;;;;;;;;;5039832;28;20030;-79
2022/01/16 01:16:25;;;;;;;;;;;;;;;;;;5039086;28;20067;-80
2022/01/16 01:18:50;;;;;;;17.30;6.45;;;;;;;;;;5039292;28;19913;-78
2022/01/16 01:21:27;;;;;;;16.55;6.65;;;;;;;;;;5038375;28;20104;-80
2022/01/16 01:23:53;;;;;;;20.50;7.28;;;;;;;;;;5038297;28;20028;-80
2022/01/16 01:26:23;;;;;;;25.80;7.28;;;;;;;;;;5036073;28;20052;-78
2022/01/16 01:28:48;;;;;;;17.60;7.55;;;;;;;;;;5035725;28;20109;-78
2022/01/16 01:31:14;;;;;;;17.27;7.43;;;;;;;;;;5037476;28;20147;-79
2022/01/16 01:33:39;;;;;;;21.88;7.50;;;;;;;;;;5039896;28;20071;-79
2022/01/16 01:36:04;;;;;;;18.80;7.25;;;;;;;;;;5039452;28;20036;-79
2022/01/16 01:38:29;;;;;;;15.05;7.07;;;;;;;;;;5040246;28;20029;-79
2022/01/16 01:40:55;;;;;;;17.30;7.28;;;;;;;;;;5039584;28;20093;-79
2022/01/16 01:51:27;;;;;;;19.63;7.50;;;;;;;;;;5039990;28;20032;-78
2022/01/16 01:53:56;;;;;;;17.88;7.35;;;;;;;;;;5038768;28;20029;-81
2022/01/16 01:56:23;;;;;;;15.63;6.90;;;;;;;;;;5038379;28;20018;-79
2022/01/16 01:58:52;;;;;;;20.25;7.53;;;;;;;;;;5040154;28;20024;-79
2022/01/16 02:01:17;;;;;;;17.52;7.35;;;;;;;;;;5022662;28;20443;-78
2022/01/16 02:03:43;;;;;;;19.10;6.93;;;;;;;;;;5039566;28;20036;-79
2022/01/16 02:06:20;;;;;;;16.88;6.63;;;;;;;;;;5039692;28;20122;-79
2022/01/16 02:08:48;;;;;;;17.92;6.75;;;;;;;;;;5040482;28;20487;-78
2022/01/16 02:11:15;;;;;;;17.50;6.65;;;;;;;;;;5039524;28;20035;-80
2022/01/16 02:13:59;;;;;;;21.08;7.22;;;;;;;;;;5039909;28;20073;-81
2022/01/16 02:30:54;;;;;;;22.08;6.93;;;;;;;;;;5039950;28;20454;-79
2022/01/16 02:35:42;;;;;;;17.20;7.57;;;;;;;;;;5040538;28;20032;-80
2022/01/16 02:38:11;;;;;;;11.98;6.45;;;;;;;;;;5039522;28;20393;-80
2022/01/16 02:40:40;;;;;;;21.27;7.43;;;;;;;;;;5039358;28;20467;-79
2022/01/16 02:43:05;;;;;;;23.75;7.47;;;;;;;;;;5038270;28;20375;-80
2022/01/16 02:45:32;;;;;;;21.27;7.30;;;;;;;;;;5038631;28;20079;-79
2022/01/16 02:48:05;;;;;;;18.45;7.07;;;;;;;;;;5038893;28;20033;-79
2022/01/16 02:50:32;;;;;;;20.25;6.93;;;;;;;;;;5039502;28;20030;-78
2022/01/16 02:52:57;;;;;;;19.90;8.00;;;;;;;;;;5042066;28;20036;-78
2022/01/16 02:55:23;;;;;;;19.55;7.22;;;;;;;;;;5041136;28;20104;-79
2022/01/16 02:57:50;;;;;;;19.55;7.32;;;;;;;;;;5040507;28;20036;-80
2022/01/16 03:00:16;;;;;;;19.20;7.90;;;;;;;;;;5039785;28;20021;-80
2022/01/16 03:02:42;;;;;;;26.42;7.75;;;;;;;;;;5040069;28;20040;-79
2022/01/16 03:05:08;;;;;;;23.30;8.88;;;;;;;;;;5040155;28;20026;-79
2022/01/16 03:07:34;;;;;;;22.38;9.23;;;;;;;;;;5039998;28;20046;-78
2022/01/16 03:10:19;;;;;;;25.00;8.52;;;;;;;;;;5039885;28;20021;-78
2022/01/16 03:12:47;;;;;;;18.73;7.60;;;;;;;;;;5048947;28;20105;-78
2022/01/16 03:15:14;;;;;;;17.15;7.55;;;;;;;;;;5059896;28;20009;-79
2022/01/16 03:21:52;;;;;;;22.33;8.23;;;;;;;;;;5043404;28;20013;-77
2022/01/16 03:23:18;;;;;;;24.63;8.23;;;;;;;;;;5049488;28;20047;-80
2022/01/16 03:25:43;;;;;;;20.55;8.20;;;;;;;;;;5048369;28;20386;-79
2022/01/16 03:28:09;;;;;;;19.88;7.68;;;;;;;;;;5049009;28;20033;-77
2022/01/16 03:30:34;;;;;;;21.17;7.55;;;;;;;;;;5049378;28;20034;-79
2022/01/16 03:32:59;;;;;;;19.70;7.80;;;;;;;;;;5047580;28;20032;-79
2022/01/16 03:35:25;;;;;;;23.50;8.65;;;;;;;;;;5046803;28;20033;-78
2022/01/16 03:37:50;;;;;;;21.27;7.60;;;;;;;;;;5049174;28;20045;-79
2022/01/16 03:40:16;;;;;;;23.80;8.15;;;;;;;;;;5047600;28;20064;-79
2022/01/16 03:42:41;;;;;;;26.52;8.18;;;;;;;;;;5047444;28;20025;-79
2022/01/16 03:45:09;;;;;;;20.73;7.25;;;;;;;;;;5049713;28;20079;-79
2022/01/16 03:47:35;;;;;;;16.63;7.30;;;;;;;;;;5048831;28;20036;-81
2022/01/16 03:50:02;;;;;;;17.60;6.68;;;;;;;;;;5049688;28;20026;-78
2022/01/16 03:52:28;;;;;;;16.55;7.25;;;;;;;;;;5048347;28;20485;-80
2022/01/16 03:54:53;;;;;;;20.45;7.20;;;;;;;;;;5048567;28;20017;-80
2022/01/16 03:57:18;;;;;;;21.05;7.43;;;;;;;;;;5048321;28;20032;-80
2022/01/16 03:59:44;;;;;;;15.27;6.40;;;;;;;;;;5045785;28;20025;-81
2022/01/16 04:02:09;;;;;;;18.02;6.70;;;;;;;;;;5045079;28;20034;-78
2022/01/16 04:04:34;;;;;;;16.65;7.00;;;;;;;;;;5045365;28;20029;-79
2022/01/16 04:07:00;;;;;;;22.13;7.28;;;;;;;;;;5044501;28;20025;-79
2022/01/16 04:09:26;;;;;;;14.07;6.20;;;;;;;;;;5043194;28;20025;-77
2022/01/16 04:11:55;;;;;;;15.98;6.80;;;;;;;;;;5027718;28;20021;-77
2022/01/16 04:17:05;;;;;;;24.80;6.88;;;;;;;;;;5043055;28;20037;-81
2022/01/16 04:19:30;;;;;;;21.35;6.95;;;;;;;;;;5040672;28;20483;-80
2022/01/16 04:21:56;;;;;;;21.40;7.50;;;;;;;;;;5041704;28;20494;-79
2022/01/16 04:24:21;;;;;;;20.00;8.20;;;;;;;;;;5040712;28;20398;-78
2022/01/16 04:26:46;;;;;;;22.50;8.32;;;;;;;;;;5040629;28;20056;-78
2022/01/16 04:29:11;;;;;;;18.95;7.82;;;;;;;;;;5040307;28;20032;-80
2022/01/16 04:31:36;;;;;;;23.35;8.45;;;;;;;;;;5041235;28;20030;-80
2022/01/16 04:34:02;;;;;;;20.40;8.30;;;;;;;;;;5040593;28;20112;-81
2022/01/16 04:36:27;;;;;;;28.33;8.75;;;;;;;;;;5040277;28;20513;-81
2022/01/16 04:38:52;;;;;;;33.53;9.85;;;;;;;;;;5023294;28;20026;-80
2022/01/16 04:44:03;;;;;;;20.23;8.20;;;;;;;;;;5041490;28;20040;-79
2022/01/16 04:46:30;;;;;;;20.50;8.63;;;;;;;;;;5040632;28;20025;-79
2022/01/16 04:48:57;;;;;;;20.90;8.13;;;;;;;;;;5041778;28;20034;-79
2022/01/16 04:51:23;;;;;;;22.17;7.53;;;;;;;;;;5042119;28;20406;-78
2022/01/16 04:53:49;;;;;;;17.52;7.78;;;;;;;;;;5042344;28;20117;-79
2022/01/16 04:56:15;;;;;;;17.05;7.25;;;;;;;;;;5043559;28;20025;-79
2022/01/16 04:58:41;;;;;;;22.38;7.18;;;;;;;;;;5043224;28;20052;-80
2022/01/16 05:01:07;;;;;;;18.85;7.00;;;;;;;;;;5024932;28;20025;-81
2022/01/16 05:03:33;;;;;;;18.67;6.55;;;;;;;;;;5041318;28;20033;-79
2022/01/16 05:06:00;;;;;;;19.20;7.30;;;;;;;;;;5025483;28;20032;-81
2022/01/16 05:08:26;;;;;;;22.23;7.05;;;;;;;;;;5046548;28;20125;-81
2022/01/16 05:10:54;;;;;;;20.65;7.53;;;;;;;;;;5045872;28;20032;-81
2022/01/16 05:18:36;;;;;;;14.60;6.15;;;;;;;;;;5051232;28;20033;-80
2022/01/16 05:21:02;;;;;;;14.90;6.20;;;;;;;;;;5046416;28;20021;-80
2022/01/16 05:23:27;;;;;;;16.15;7.18;;;;;;;;;;5046508;28;20029;-79
2022/01/16 05:25:53;;;;;;;17.55;7.07;;;;;;;;;;5045363;28;20030;-81
2022/01/16 05:28:18;;;;;;;21.25;6.60;;;;;;;;;;5044951;28;20037;-79
2022/01/16 05:30:44;;;;;;;18.48;6.68;;;;;;;;;;5044356;28;20483;-80
2022/01/16 05:33:09;;;;;;;18.08;5.57;;;;;;;;;;5044168;28;20032;-80
2022/01/16 05:35:35;;;;;;;19.02;7.55;;;;;;;;;;5044981;28;20029;-80
2022/01/16 05:38:00;;;;;;;21.75;6.88;;;;;;;;;;5045093;28;20053;-81
2022/01/16 05:40:26;;;;;;;16.50;6.80;;;;;;;;;;5045160;28;20026;-80
2022/01/16 05:42:51;;;;;;;19.13;6.70;;;;;;;;;;5044605;28;20025;-79
2022/01/16 05:45:17;;;;;;;14.90;6.40;;;;;;;;;;5042981;28;20056;-80
2022/01/16 05:47:42;;;;;;;20.70;6.57;;;;;;;;;;5044315;28;20030;-81
2022/01/16 05:50:08;;;;;;;16.77;6.45;;;;;;;;;;5044120;28;20029;-80
2022/01/16 05:52:33;;;;;;;27.00;7.10;;;;;;;;;;5043806;28;20106;-79
2022/01/16 05:54:58;;;;;;;17.17;6.72;;;;;;;;;;5044079;28;20035;-79
2022/01/16 05:57:23;;;;;;;21.52;7.75;;;;;;;;;;5026860;28;20057;-81
2022/01/16 05:59:49;;;;;;;17.98;6.72;;;;;;;;;;5044570;28;20025;-79
2022/01/16 06:02:15;;;;;;;20.02;7.25;;;;;;;;;;5027764;28;20032;-79
2022/01/16 06:04:40;;;;;;;18.30;6.38;;;;;;;;;;5032739;28;20001;-79
2022/01/16 06:07:06;;;;;;;16.75;6.28;;;;;;;;;;5044886;28;20016;-78
2022/01/16 06:09:31;;;;;;;23.25;7.68;;;;;;;;;;5044882;28;20017;-79
2022/01/16 06:11:57;;;;;;;21.73;6.63;;;;;;;;;;5061973;28;20049;-78
2022/01/16 06:14:23;;;;;;;21.58;7.43;;;;;;;;;;5059308;28;20013;-79
2022/01/16 06:16:49;;;;;;;16.40;6.53;;;;;;;;;;5042441;28;20100;-80
2022/01/16 06:19:14;;;;;;;15.80;6.88;;;;;;;;;;5042921;28;20026;-79
2022/01/16 06:21:39;;;;;;;23.23;7.57;;;;;;;;;;5043229;28;20029;-80
2022/01/16 06:24:05;;;;;;;22.05;7.25;;;;;;;;;;5042736;28;20029;-80
2022/01/16 06:26:31;;;;;;;21.50;7.15;;;;;;;;;;5043231;28;20025;-79
2022/01/16 06:28:56;;;;;;;14.02;6.22;;;;;;;;;;5042028;28;20017;-79
2022/01/16 06:31:22;;;;;;;20.38;7.63;;;;;;;;;;5043963;28;20029;-79
2022/01/16 06:33:47;;;;;;;20.38;7.05;;;;;;;;;;5043785;28;20033;-80
2022/01/16 06:36:12;;;;;;;23.67;7.40;;;;;;;;;;5044234;28;20398;-80
2022/01/16 06:38:37;;;;;;;16.73;6.63;;;;;;;;;;5044745;28;20035;-80
2022/01/16 06:41:03;;;;;;;19.98;6.65;;;;;;;;;;5027048;28;20053;-79
2022/01/16 06:43:28;;;;;;;14.90;6.80;;;;;;;;;;5044400;28;20044;-80
2022/01/16 06:45:54;;;;;;;18.05;6.50;;;;;;;;;;5046194;28;20073;-79
2022/01/16 06:48:19;;;;;;;17.38;6.75;;;;;;;;;;5044991;28;20049;-78
2022/01/16 06:50:45;;;;;;;15.23;7.13;;;;;;;;;;5045711;28;20479;-80
2022/01/16 06:53:10;;;;;;;17.88;6.30;;;;;;;;;;5044823;28;20521;-80
2022/01/16 06:55:35;;;;;;;15.77;6.63;;;;;;;;;;5044382;28;20475;-81
2022/01/16 06:58:00;;;;;;;18.40;7.55;;;;;;;;;;5044811;28;20094;-82
2022/01/16 07:00:26;;;;;;;18.13;6.65;;;;;;;;;;5043775;28;20077;-79
2022/01/16 07:02:51;;;;;;;17.23;7.00;;;;;;;;;;5043811;28;20029;-79
2022/01/16 07:05:17;;;;;;;22.17;7.00;;;;;;;;;;5026782;28;20032;-81
2022/01/16 07:07:43;;;;;;;19.80;6.88;;;;;;;;;;5043409;28;20021;-81
2022/01/16 07:10:08;;;;;;;18.45;7.05;;;;;;;;;;5044322;28;20036;-81
2022/01/16 07:12:34;;;;;;;16.00;7.10;;;;;;;;;;5044465;28;20034;-80
2022/01/16 07:14:59;;;;;;;18.38;7.38;;;;;;;;;;5044348;28;20025;-78
2022/01/16 07:17:24;;;;;;;18.42;7.15;;;;;;;;;;5044405;28;20091;-80
2022/01/16 07:19:49;;;;;;;15.38;6.28;;;;;;;;;;5047789;28;20017;-79
2022/01/16 07:22:15;;;;;;;16.25;6.93;;;;;;;;;;5043833;28;20034;-81
2022/01/16 07:24:40;;;;;;;16.75;6.90;;;;;;;;;;5043887;28;20021;-80
2022/01/16 07:27:05;;;;;;;21.38;7.53;;;;;;;;;;5051315;28;20021;-80
2022/01/16 07:29:30;;;;;;;21.88;7.78;;;;;;;;;;5053622;28;20029;-79
2022/01/16 07:31:56;;;;;;;18.15;7.55;;;;;;;;;;5047008;28;20005;-80
2022/01/16 07:34:21;;;;;;;17.10;7.20;;;;;;;;;;5051393;28;20048;-81
2022/01/16 07:36:47;;;;;;;22.23;7.47;;;;;;;;;;5045986;28;20032;-80
2022/01/16 07:39:12;;;;;;;16.88;7.10;;;;;;;;;;5043627;28;20071;-81
2022/01/16 07:41:38;;;;;;;19.75;7.53;;;;;;;;;;5043286;28;20025;-80
2022/01/16 07:44:03;;;;;;;20.75;7.95;;;;;;;;;;5042139;28;20025;-81
2022/01/16 07:46:28;;;;;;;20.25;6.82;;;;;;;;;;5042457;28;20030;-80
2022/01/16 07:48:54;;;;;;;16.95;6.68;;;;;;;;;;5043930;28;20022;-80
2022/01/16 07:51:19;;;;;;;19.67;7.45;;;;;;;;;;5044179;28;20029;-80
2022/01/16 07:53:45;;;;;;;25.15;8.02;;;;;;;;;;5044125;28;20029;-79
2022/01/16 07:56:10;;;;;;;20.58;7.45;;;;;;;;;;5043813;28;20033;-80
2022/01/16 07:58:36;;;;;;;18.52;7.50;;;;;;;;;;5043057;28;20482;-81
2022/01/16 08:01:03;;;;;;;18.88;8.10;;;;;;;;;;5042758;28;20096;-80
2022/01/16 08:03:28;;;;;;;38.15;12.27;;;;;;;;;;5025248;28;20025;-80
2022/01/16 08:05:53;;;;;;;27.15;11.23;;;;;;;;;;5025292;28;20617;-79
2022/01/16 08:08:18;;;;;;;31.95;15.10;;;;;;;;;;5042850;28;20030;-79
2022/01/16 08:10:44;;;;;;;23.40;10.10;;;;;;;;;;5042817;28;20104;-81
2022/01/16 08:13:09;;;;;;;19.20;9.15;;;;;;;;;;5042029;28;20021;-79
2022/01/16 08:15:34;;;;;;;19.05;8.40;;;;;;;;;;5041453;28;20037;-79
2022/01/16 08:17:59;;;;;;;21.20;8.15;;;;;;;;;;5040742;28;20453;-80
2022/01/16 08:20:25;;;;;;;21.70;8.95;;;;;;;;;;5041463;28;20371;-80
2022/01/16 08:22:50;;;;;;;20.55;9.18;;;;;;;;;;5041752;28;20033;-80
2022/01/16 08:25:15;;;;;;;23.23;9.45;;;;;;;;;;5042306;28;20022;-80
2022/01/16 08:27:41;;;;;;;20.85;8.82;;;;;;;;;;5041333;28;20032;-80
2022/01/16 08:30:07;;;;;;;28.48;9.23;;;;;;;;;;5044757;28;20029;-80
2022/01/16 08:32:33;;;;;;;25.15;9.73;;;;;;;;;;5048761;28;20030;-80
2022/01/16 08:34:59;;;;;;;22.10;9.48;;;;;;;;;;5043775;28;20032;-80
2022/01/16 08:37:24;;;;;;;19.67;8.27;;;;;;;;;;5041683;28;20060;-80
2022/01/16 08:39:50;;;;;;;20.48;9.23;;;;;;;;;;5040630;28;20021;-81
2022/01/16 08:42:15;;;;;;;23.42;9.55;;;;;;;;;;5041520;28;20055;-79
2022/01/16 08:44:42;;;;;;;23.73;8.77;;;;;;;;;;5041483;28;20053;-80
2022/01/16 08:47:08;;;;;;;25.20;10.57;;;;;;;;;;5040167;28;20463;-79
2022/01/16 08:49:33;;;;;;;21.08;9.23;;;;;;;;;;5040787;28;20083;-81
2022/01/16 08:51:59;;;;;;;21.63;8.98;;;;;;;;;;5040243;28;20487;-79
2022/01/16 08:54:24;;;;;;;18.10;8.70;;;;;;;;;;5043956;28;20026;-80
2022/01/16 08:56:49;;;;;;;22.92;9.18;;;;;;;;;;5042048;28;20048;-79
2022/01/16 08:59:14;;;;;;;26.63;9.70;;;;;;;;;;5040573;28;20084;-80
2022/01/16 09:01:40;;;;;;;23.80;9.00;;;;;;;;;;5039465;28;20025;-80
2022/01/16 09:04:05;;;;;;;23.95;9.52;;;;;;;;;;5038001;28;20403;-76
2022/01/16 09:06:30;;;;;;;30.10;10.32;;;;;;;;;;5037691;28;20025;-80
2022/01/16 09:08:56;;;;;;;20.60;8.85;;;;;;;;;;5037741;28;20030;-78
2022/01/16 09:11:25;;;;;;;26.45;9.77;;;;;;;;;;5040260;28;20025;-79
2022/01/16 09:13:50;;;;;;;20.30;10.18;;;;;;;;;;5038623;28;20026;-80
2022/01/16 09:16:16;;;;;;;24.00;9.90;;;;;;;;;;5021183;28;20187;-79
2022/01/16 09:18:41;;;;;;;25.80;10.38;;;;;;;;;;5041355;28;20113;-79
2022/01/16 09:21:06;;;;;;;25.35;10.73;;;;;;;;;;5041553;28;20026;-79
2022/01/16 09:23:31;;;;;;;21.73;10.85;;;;;;;;;;5040678;28;20030;-79
2022/01/16 09:25:57;;;;;;;30.73;11.80;;;;;;;;;;5039667;28;20025;-80
2022/01/16 09:28:22;;;;;;;28.35;11.32;;;;;;;;;;5036715;28;20041;-80
2022/01/16 09:30:47;;;;;;;30.27;11.77;;;;;;;;;;5037913;28;20106;-79
2022/01/16 09:33:12;;;;;;;23.92;11.07;;;;;;;;;;5039133;28;20021;-79
2022/01/16 09:35:38;;;;;;;25.10;12.05;;;;;;;;;;5038692;28;20079;-79
2022/01/16 09:38:04;;;;;;;27.83;12.05;;;;;;;;;;5040135;28;20037;-81
2022/01/16 09:40:29;;;;;;;25.50;12.38;;;;;;;;;;5038513;28;20091;-79
2022/01/16 09:42:55;;;;;;;24.45;12.50;;;;;;;;;;5038934;28;20025;-80
2022/01/16 09:45:21;;;;;;;28.60;12.18;;;;;;;;;;5041574;28;20044;-79
2022/01/16 09:47:47;;;;;;;25.00;12.20;;;;;;;;;;5023522;28;20022;-79
2022/01/16 09:50:17;;;;;;;29.70;12.98;;;;;;;;;;5043093;28;20022;-79
2022/01/16 09:52:44;;;;;;;23.70;12.30;;;;;;;;;;5045315;28;20057;-80
2022/01/16 09:55:10;;;;;;;26.50;13.25;;;;;;;;;;5046159;28;20017;-80
2022/01/16 09:57:37;;;;;;;30.38;12.00;;;;;;;;;;5046969;28;20056;-79
2022/01/16 10:00:08;;;;;;;27.60;12.13;;;;;;;;;;5045886;28;20086;-80
2022/01/16 10:02:33;;;;;;;25.63;12.02;;;;;;;;;;5047035;28;20029;-80
2022/01/16 10:04:58;;;;;;;31.33;12.57;;;;;;;;;;5046360;28;20029;-80
2022/01/16 10:07:23;;;;;;;27.02;12.60;;;;;;;;;;5046069;28;20032;-79
2022/01/16 10:10:07;;;;;;;28.58;12.50;;;;;;;;;;5046696;28;20025;-80
2022/01/16 10:12:33;;;;;;;31.67;12.73;;;;;;;;;;5046370;28;20425;-80
2022/01/16 10:15:15;;;;;;;30.85;12.82;;;;;;;;;;5045368;28;20032;-81
2022/01/16 10:17:45;;;;;;;30.23;13.18;;;;;;;;;;5046063;28;20387;-80
2022/01/16 10:20:11;;;;;;;25.60;12.77;;;;;;;;;;5045984;28;20045;-80
2022/01/16 10:22:39;;;;;;;27.88;12.13;;;;;;;;;;5029098;28;20462;-80
2022/01/16 10:25:06;;;;;;;26.85;12.77;;;;;;;;;;5046420;28;20030;-81
2022/01/16 10:27:34;;;;;;;31.50;12.95;;;;;;;;;;5046159;28;20029;-81
2022/01/16 10:30:02;;;;;;;28.42;13.07;;;;;;;;;;5045781;28;20094;-81
2022/01/16 10:32:31;;;;;;;26.88;12.25;;;;;;;;;;5044567;28;20075;-80
2022/01/16 10:35:14;;;;;;;27.60;13.30;;;;;;;;;;5045744;28;20032;-80
2022/01/16 10:37:47;;;;;;;32.03;12.95;;;;;;;;;;5045420;28;20025;-81
2022/01/16 10:40:33;;;;;;;28.08;13.52;;;;;;;;;;5045434;28;20455;-80
2022/01/16 10:43:03;;;;;;;27.63;13.18;;;;;;;;;;5045988;28;20038;-78
2022/01/16 10:45:30;;;;;;;27.95;13.23;;;;;;;;;;5045508;28;20044;-81
2022/01/16 10:48:00;;;;;;;27.15;13.02;;;;;;;;;;5028145;28;20098;-80
2022/01/16 10:50:28;;;;;;;26.27;12.35;;;;;;;;;;5046514;28;20045;-80
2022/01/16 10:52:55;;;;;;;27.27;12.63;;;;;;;;;;5044738;28;20087;-79
2022/01/16 10:55:44;;;;;;;30.45;12.98;;;;;;;;;;5045389;28;20437;-80
2022/01/16 10:58:19;;;;;;;23.70;11.63;;;;;;;;;;5045792;28;20027;-80
2022/01/16 11:00:54;;;;;;;28.20;11.35;;;;;;;;;;5045695;28;20029;-80
2022/01/16 11:03:21;;;;;;;27.38;11.23;;;;;;;;;;5027825;28;20025;-80
2022/01/16 11:05:49;;;;;;;26.42;12.02;;;;;;;;;;5045482;28;20433;-78
2022/01/16 11:08:17;;;;;;;20.58;10.70;;;;;;;;;;5044903;28;20080;-80
2022/01/16 11:10:45;;;;;;;25.13;11.45;;;;;;;;;;5044537;28;20025;-81
2022/01/16 11:13:16;;;;;;;24.38;11.20;;;;;;;;;;5045581;28;20029;-79
2022/01/16 11:15:43;;;;;;;23.88;10.40;;;;;;;;;;5044849;28;20112;-79
2022/01/16 11:18:10;;;;;;;20.65;9.35;;;;;;;;;;5045631;28;20036;-81
2022/01/16 11:20:38;;;;;;;23.30;9.73;;;;;;;;;;5045061;28;20061;-80
2022/01/16 11:23:27;;;;;;;19.60;9.13;;;;;;;;;;5045513;28;20026;-80
2022/01/16 11:25:59;;;;;;;17.20;9.48;;;;;;;;;;5044267;28;20368;-79
2022/01/16 11:28:25;;;;;;;18.23;8.53;;;;;;;;;;5044828;28;20090;-80
2022/01/16 11:30:56;;;;;;;13.18;6.07;;;;;;;;;;5043801;28;20083;-80
2022/01/16 11:33:24;;;;;;;6.63;3.30;;;;;;;;;;5026874;28;20018;-80
2022/01/16 11:35:53;;;;;;;7.43;3.45;;;;;;;;;;5043065;28;20036;-81
2022/01/16 11:38:21;;;;;;;9.95;4.47;;;;;;;;;;5042150;28;20026;-79
2022/01/16 11:40:48;;;;;;;9.48;4.32;;;;;;;;;;5042605;28;20081;-81
2022/01/16 11:43:19;;;;;;;9.00;4.18;;;;;;;;;;5041733;28;20025;-79
2022/01/16 11:46:07;;;;;;;9.10;4.85;;;;;;;;;;5041031;28;20026;-80
2022/01/16 11:49:03;;;;;;;10.88;4.72;;;;;;;;;;5040290;28;20033;-80
2022/01/16 11:51:32;;;;;;;9.18;4.68;;;;;;;;;;5011203;28;20151;-80
2022/01/16 11:54:20;;;;;;;8.55;3.50;;;;;;;;;;5058469;28;20020;-79
2022/01/16 11:56:45;;;;;;;7.88;4.13;;;;;;;;;;5044996;28;20036;-79
2022/01/16 11:59:23;;;;;;;8.73;4.43;;;;;;;;;;5025158;28;20018;-79
2022/01/16 12:02:00;;;;;;;8.88;4.65;;;;;;;;;;5042232;28;20254;-79
2022/01/16 12:04:32;;;;;;;6.68;3.65;;;;;;;;;;5026716;28;20026;-80
2022/01/16 12:07:13;;;;;;;7.13;3.60;;;;;;;;;;5044336;28;20029;-81
2022/01/16 12:09:48;;;;;;;6.93;3.63;;;;;;;;;;5044479;28;20032;-81
2022/01/16 12:12:16;;;;;;;8.50;4.00;;;;;;;;;;5027857;28;20029;-79
2022/01/16 12:14:48;;;;;;;7.13;3.55;;;;;;;;;;5044471;28;20030;-81
2022/01/16 12:17:32;;;;;;;9.15;4.18;;;;;;;;;;5043834;28;20029;-79
2022/01/16 12:20:09;;;;;;;4.88;3.08;;;;;;;;;;5045094;28;20026;-80
2022/01/16 12:22:46;;;;;;;6.75;3.65;;;;;;;;;;5045206;28;20053;-80
2022/01/16 12:25:22;;;;;;;8.02;3.92;;;;;;;;;;5055778;28;20029;-79
2022/01/16 12:27:48;;;;;;;8.38;4.05;;;;;;;;;;5058979;28;20033;-79
2022/01/16 12:30:52;;;;;;;8.25;4.65;;;;;;;;;;5058930;28;20017;-77
2022/01/16 12:33:27;;;;;;;10.02;3.72;;;;;;;;;;5059025;28;20040;-78
2022/01/16 12:36:00;;;;;;;8.50;4.90;;;;;;;;;;5049497;28;20109;-81
2022/01/16 12:38:34;;;;;;;8.32;4.57;;;;;;;;;;5047427;28;20017;-79
2022/01/16 12:41:07;;;;;;;8.45;4.22;;;;;;;;;;5044968;28;20085;-79
2022/01/16 12:43:47;;;;;;;11.45;4.20;;;;;;;;;;5043601;28;20060;-80
2022/01/16 12:46:15;;;;;;;7.88;4.43;;;;;;;;;;5043012;28;20029;-79
2022/01/16 12:48:45;;;;;;;8.57;5.07;;;;;;;;;;5042654;28;20045;-79
2022/01/16 12:51:13;;;;;;;8.50;4.47;;;;;;;;;;5043427;28;20056;-80
2022/01/16 12:53:46;;;;;;;7.43;4.43;;;;;;;;;;5043283;28;20033;-80
2022/01/16 12:56:36;;;;;;;10.00;5.13;;;;;;;;;;5043613;28;20034;-80
2022/01/16 12:59:15;;;;;;;10.75;5.60;;;;;;;;;;5043074;28;20018;-81
2022/01/16 13:01:54;;;;;;;7.88;4.68;;;;;;;;;;5043328;28;20052;-82
2022/01/16 13:04:33;;;;;;;10.00;5.40;;;;;;;;;;5043767;28;20104;-80
2022/01/16 13:07:02;;;;;;;11.07;5.78;;;;;;;;;;5047058;28;20033;-80
2022/01/16 13:09:28;;;;;;;10.88;5.57;;;;;;;;;;5045020;28;20021;-80
2022/01/16 13:12:01;;;;;;;9.82;5.13;;;;;;;;;;5043464;28;20032;-80
2022/01/16 13:14:35;;;;;;;11.13;5.45;;;;;;;;;;5045669;28;20052;-80
2022/01/16 13:17:04;;;;;;;10.38;4.85;;;;;;;;;;5027331;28;20136;-80
2022/01/16 13:19:39;;;;;;;10.88;5.50;;;;;;;;;;5046001;28;20018;-81
2022/01/16 13:22:12;;;;;;;11.95;5.65;;;;;;;;;;5046300;28;20040;-79
2022/01/16 13:24:50;;;;;;;5.38;3.17;;;;;;;;;;5044425;28;20037;-81
2022/01/16 13:27:27;;;;;;;16.48;5.90;;;;;;;;;;5027864;28;20041;-79
2022/01/16 13:30:02;;;;;;;12.45;6.00;;;;;;;;;;5045401;28;20048;-80
2022/01/16 13:32:30;;;;;;;14.48;5.93;;;;;;;;;;5045281;28;20025;-81
2022/01/16 13:34:57;;;;;;;11.30;5.72;;;;;;;;;;5044280;28;20032;-78
2022/01/16 13:37:27;;;;;;;13.45;5.75;;;;;;;;;;5026947;28;20048;-79
2022/01/16 13:40:02;;;;;;;10.25;5.95;;;;;;;;;;5044465;28;20041;-80
2022/01/16 13:42:39;;;;;;;13.38;5.90;;;;;;;;;;5044759;28;20049;-78
2022/01/16 13:45:23;;;;;;;12.93;6.20;;;;;;;;;;5042808;28;20022;-79
2022/01/16 13:48:07;;;;;;;13.07;6.20;;;;;;;;;;5045909;28;20021;-80
2022/01/16 13:50:53;;;;;;;12.27;6.00;;;;;;;;;;5043725;28;20426;-80
2022/01/16 13:53:23;;;;;;;10.13;5.68;;;;;;;;;;5043942;28;20040;-80
2022/01/16 13:55:57;;;;;;;11.80;5.78;;;;;;;;;;5043679;28;20021;-79
2022/01/16 13:58:26;;;;;;;10.93;6.15;;;;;;;;;;5042570;28;20084;-80
2022/01/16 14:00:54;;;;;;;13.43;5.85;;;;;;;;;;5043216;28;20044;-80
2022/01/16 14:03:23;;;;;;;10.88;5.65;;;;;;;;;;5040319;28;20104;-78
2022/01/16 14:05:54;;;;;;;15.32;6.70;;;;;;;;;;5021598;28;20026;-80
2022/01/16 14:08:26;;;;;;;12.50;6.18;;;;;;;;;;5038879;28;20048;-80
2022/01/16 14:10:54;;;;;;;9.23;4.95;;;;;;;;;;5039436;28;20025;-80
2022/01/16 14:13:20;;;;;;;12.52;5.85;;;;;;;;;;5020672;28;20386;-79
2022/01/16 14:16:02;;;;;;;13.30;6.13;;;;;;;;;;5039599;28;20033;-80
2022/01/16 14:18:40;;;;;;;9.27;5.22;;;;;;;;;;5039468;28;20021;-79
2022/01/16 14:23:49;;;;;;;10.60;5.65;;;;;;;;;;5040000;28;20036;-79
2022/01/16 14:26:14;;;;;;;11.20;5.80;;;;;;;;;;5039581;28;20029;-79
2022/01/16 14:28:39;;;;;;;13.13;6.65;;;;;;;;;;5039629;28;20091;-79
2022/01/16 14:31:05;;;;;;;8.75;5.00;;;;;;;;;;5039757;28;20029;-79
2022/01/16 14:33:30;;;;;;;11.07;5.50;;;;;;;;;;5039764;28;20071;-79
2022/01/16 14:35:55;;;;;;;10.52;5.80;;;;;;;;;;5040304;28;20128;-79
2022/01/16 14:38:20;;;;;;;11.63;6.10;;;;;;;;;;5039557;28;20029;-80
2022/01/16 14:40:45;;;;;;;9.85;5.60;;;;;;;;;;5041120;28;20052;-80
2022/01/16 14:43:17;;;;;;;11.32;5.63;;;;;;;;;;5041686;28;20033;-79
2022/01/16 14:45:42;;;;;;;11.98;6.05;;;;;;;;;;5042396;28;20049;-79
2022/01/16 14:48:07;;;;;;;10.48;5.18;;;;;;;;;;5041755;28;20026;-80
2022/01/16 14:50:32;;;;;;;9.90;4.90;;;;;;;;;;5040860;28;20049;-79
2022/01/16 14:52:58;;;;;;;11.10;5.72;;;;;;;;;;5042011;28;20029;-79
2022/01/16 14:55:23;;;;;;;10.27;5.55;;;;;;;;;;5041347;28;20025;-78
2022/01/16 14:57:49;;;;;;;12.48;5.28;;;;;;;;;;5041276;28;20040;-79
2022/01/16 15:00:14;;;;;;;11.50;5.53;;;;;;;;;;5023854;28;20490;-78
2022/01/16 15:02:41;;;;;;;10.15;5.63;;;;;;;;;;5041301;28;20044;-81
2022/01/16 15:05:10;;;;;;;10.50;5.70;;;;;;;;;;5042020;28;20049;-79
2022/01/16 15:07:35;;;;;;;10.75;5.63;;;;;;;;;;5041862;28;20085;-79
2022/01/16 15:10:01;;;;;;;11.48;5.40;;;;;;;;;;5039288;28;20045;-79
2022/01/16 15:12:26;;;;;;;11.90;6.20;;;;;;;;;;5039358;28;20049;-81
2022/01/16 15:14:51;;;;;;;11.48;5.72;;;;;;;;;;5038826;28;20166;-78
2022/01/16 15:17:16;;;;;;;10.27;5.18;;;;;;;;;;5038579;28;20026;-80
2022/01/16 15:19:42;;;;;;;9.73;5.13;;;;;;;;;;5039365;28;20018;-79